sensor_id;sensor_type;location;lat;lon;timestamp;P1;durP1;ratioP1;P2;durP2;ratioP2
22080;SDS011;11207;59.512;18.050;2022-09-17T00:02:19;1.80;;;1.70;;
22080;SDS011;11207;59.512;18.050;2022-09-17T00:04:47;1.67;;;1.53;;
22080;SDS011;11207;59.512;18.050;2022-09-17T00:07:13;1.90;;;1.80;;
22080;SDS011;11207;59.512;18.050;2022-09-17T00:09:39;1.83;;;1.60;;
22080;SDS011;11207;59.512;18.050;2022-09-17T00:12:05;1.63;;;1.57;;
22080;SDS011;11207;59.512;18.050;2022-09-17T00:14:31;1.60;;;1.60;;
22080;SDS011;11207;59.512;18.050;2022-09-17T00:16:56;1.50;;;1.50;;
22080;SDS011;11207;59.512;18.050;2022-09-17T00:19:22;1.60;;;1.50;;
22080;SDS011;11207;59.512;18.050;2022-09-17T00:21:48;1.53;;;1.47;;
22080;SDS011;11207;59.512;18.050;2022-09-17T00:24:15;3.17;;;1.50;;
22080;SDS011;11207;59.512;18.050;2022-09-17T00:26:42;1.80;;;1.70;;
22080;SDS011;11207;59.512;18.050;2022-09-17T00:29:08;1.70;;;1.60;;
22080;SDS011;11207;59.512;18.050;2022-09-17T00:31:34;2.93;;;1.73;;
22080;SDS011;11207;59.512;18.050;2022-09-17T00:34:00;3.03;;;1.80;;
22080;SDS011;11207;59.512;18.050;2022-09-17T00:36:28;1.80;;;1.70;;
22080;SDS011;11207;59.512;18.050;2022-09-17T00:38:55;2.70;;;1.60;;
22080;SDS011;11207;59.512;18.050;2022-09-17T00:41:22;1.50;;;1.50;;
22080;SDS011;11207;59.512;18.050;2022-09-17T00:43:52;1.83;;;1.70;;
22080;SDS011;11207;59.512;18.050;2022-09-17T00:49:09;1.83;;;1.73;;
22080;SDS011;11207;59.512;18.050;2022-09-17T00:51:39;1.50;;;1.50;;
22080;SDS011;11207;59.512;18.050;2022-09-17T00:54:10;3.50;;;1.60;;
22080;SDS011;11207;59.512;18.050;2022-09-17T00:56:37;2.07;;;1.60;;
22080;SDS011;11207;59.512;18.050;2022-09-17T00:59:05;2.97;;;2.00;;
22080;SDS011;11207;59.512;18.050;2022-09-17T01:01:31;3.03;;;1.90;;
22080;SDS011;11207;59.512;18.050;2022-09-17T01:03:57;1.70;;;1.60;;
22080;SDS011;11207;59.512;18.050;2022-09-17T01:35:16;2.00;;;1.90;;
22080;SDS011;11207;59.512;18.050;2022-09-17T01:38:10;1.70;;;1.60;;
22080;SDS011;11207;59.512;18.050;2022-09-17T01:40:46;1.70;;;1.60;;
22080;SDS011;11207;59.512;18.050;2022-09-17T01:45:57;1.73;;;1.63;;
22080;SDS011;11207;59.512;18.050;2022-09-17T01:48:44;1.90;;;1.80;;
22080;SDS011;11207;59.512;18.050;2022-09-17T01:51:14;2.10;;;1.93;;
22080;SDS011;11207;59.512;18.050;2022-09-17T01:53:55;3.53;;;2.03;;
22080;SDS011;11207;59.512;18.050;2022-09-17T01:56:41;2.10;;;1.90;;
22080;SDS011;11207;59.512;18.050;2022-09-17T02:01:53;1.60;;;1.60;;
22080;SDS011;11207;59.512;18.050;2022-09-17T02:04:35;1.70;;;1.60;;
22080;SDS011;11207;59.512;18.050;2022-09-17T02:07:09;3.37;;;1.70;;
22080;SDS011;11207;59.512;18.050;2022-09-17T02:09:42;1.90;;;1.80;;
22080;SDS011;11207;59.512;18.050;2022-09-17T02:12:32;1.80;;;1.70;;
22080;SDS011;11207;59.512;18.050;2022-09-17T02:15:02;1.77;;;1.67;;
22080;SDS011;11207;59.512;18.050;2022-09-17T02:17:34;1.90;;;1.80;;
22080;SDS011;11207;59.512;18.050;2022-09-17T02:20:17;2.00;;;1.90;;
22080;SDS011;11207;59.512;18.050;2022-09-17T02:31:01;3.37;;;1.90;;
22080;SDS011;11207;59.512;18.050;2022-09-17T02:33:27;1.80;;;1.70;;
22080;SDS011;11207;59.512;18.050;2022-09-17T02:35:55;1.70;;;1.60;;
22080;SDS011;11207;59.512;18.050;2022-09-17T02:38:24;1.70;;;1.60;;
22080;SDS011;11207;59.512;18.050;2022-09-17T02:40:55;2.07;;;1.87;;
22080;SDS011;11207;59.512;18.050;2022-09-17T02:43:49;1.70;;;1.60;;
22080;SDS011;11207;59.512;18.050;2022-09-17T02:49:17;1.87;;;1.77;;
22080;SDS011;11207;59.512;18.050;2022-09-17T02:52:05;1.70;;;1.57;;
22080;SDS011;11207;59.512;18.050;2022-09-17T02:54:37;1.67;;;1.63;;
22080;SDS011;11207;59.512;18.050;2022-09-17T02:57:19;1.80;;;1.70;;
22080;SDS011;11207;59.512;18.050;2022-09-17T03:05:13;6.00;;;1.90;;
22080;SDS011;11207;59.512;18.050;2022-09-17T03:07:40;3.43;;;1.97;;
22080;SDS011;11207;59.512;18.050;2022-09-17T03:10:06;7.13;;;1.73;;
22080;SDS011;11207;59.512;18.050;2022-09-17T03:12:32;1.93;;;1.83;;
22080;SDS011;11207;59.512;18.050;2022-09-17T03:14:59;1.80;;;1.70;;
22080;SDS011;11207;59.512;18.050;2022-09-17T03:17:24;1.80;;;1.70;;
22080;SDS011;11207;59.512;18.050;2022-09-17T03:19:50;3.37;;;2.03;;
22080;SDS011;11207;59.512;18.050;2022-09-17T03:22:16;1.90;;;1.80;;
22080;SDS011;11207;59.512;18.050;2022-09-17T03:24:41;2.93;;;1.83;;
22080;SDS011;11207;59.512;18.050;2022-09-17T03:27:07;1.73;;;1.63;;
22080;SDS011;11207;59.512;18.050;2022-09-17T03:29:33;1.80;;;1.70;;
22080;SDS011;11207;59.512;18.050;2022-09-17T03:31:58;1.80;;;1.70;;
22080;SDS011;11207;59.512;18.050;2022-09-17T03:34:25;1.70;;;1.60;;
22080;SDS011;11207;59.512;18.050;2022-09-17T03:36:50;1.80;;;1.70;;
22080;SDS011;11207;59.512;18.050;2022-09-17T03:39:16;2.00;;;1.90;;
22080;SDS011;11207;59.512;18.050;2022-09-17T03:41:41;4.00;;;1.97;;
22080;SDS011;11207;59.512;18.050;2022-09-17T03:44:07;1.83;;;1.73;;
22080;SDS011;11207;59.512;18.050;2022-09-17T03:46:34;2.07;;;1.80;;
22080;SDS011;11207;59.512;18.050;2022-09-17T03:49:01;1.90;;;1.70;;
22080;SDS011;11207;59.512;18.050;2022-09-17T03:51:27;1.77;;;1.67;;
22080;SDS011;11207;59.512;18.050;2022-09-17T03:53:52;1.70;;;1.60;;
22080;SDS011;11207;59.512;18.050;2022-09-17T03:56:18;1.90;;;1.80;;
22080;SDS011;11207;59.512;18.050;2022-09-17T03:58:44;1.80;;;1.70;;
22080;SDS011;11207;59.512;18.050;2022-09-17T04:01:09;1.60;;;1.60;;
22080;SDS011;11207;59.512;18.050;2022-09-17T04:03:35;2.10;;;2.00;;
22080;SDS011;11207;59.512;18.050;2022-09-17T04:06:01;1.73;;;1.63;;
22080;SDS011;11207;59.512;18.050;2022-09-17T04:08:27;1.90;;;1.80;;
22080;SDS011;11207;59.512;18.050;2022-09-17T04:10:52;2.40;;;1.80;;
22080;SDS011;11207;59.512;18.050;2022-09-17T04:13:18;1.93;;;1.60;;
22080;SDS011;11207;59.512;18.050;2022-09-17T04:15:44;1.87;;;1.73;;
22080;SDS011;11207;59.512;18.050;2022-09-17T04:18:11;1.53;;;1.53;;
22080;SDS011;11207;59.512;18.050;2022-09-17T04:20:37;1.70;;;1.60;;
22080;SDS011;11207;59.512;18.050;2022-09-17T04:23:03;3.07;;;1.70;;
22080;SDS011;11207;59.512;18.050;2022-09-17T04:25:31;2.03;;;1.73;;
22080;SDS011;11207;59.512;18.050;2022-09-17T04:27:57;3.00;;;2.00;;
22080;SDS011;11207;59.512;18.050;2022-09-17T04:30:22;1.77;;;1.67;;
22080;SDS011;11207;59.512;18.050;2022-09-17T04:32:48;2.47;;;1.50;;
22080;SDS011;11207;59.512;18.050;2022-09-17T04:35:14;5.10;;;1.70;;
22080;SDS011;11207;59.512;18.050;2022-09-17T04:37:39;3.67;;;1.73;;
22080;SDS011;11207;59.512;18.050;2022-09-17T04:40:05;1.90;;;1.70;;
22080;SDS011;11207;59.512;18.050;2022-09-17T04:42:32;2.70;;;1.60;;
22080;SDS011;11207;59.512;18.050;2022-09-17T04:44:57;2.10;;;1.53;;
22080;SDS011;11207;59.512;18.050;2022-09-17T04:47:23;2.60;;;1.73;;
22080;SDS011;11207;59.512;18.050;2022-09-17T04:49:49;1.63;;;1.60;;
22080;SDS011;11207;59.512;18.050;2022-09-17T04:52:15;1.60;;;1.50;;
22080;SDS011;11207;59.512;18.050;2022-09-17T04:54:41;1.70;;;1.60;;
22080;SDS011;11207;59.512;18.050;2022-09-17T04:57:07;1.77;;;1.67;;
22080;SDS011;11207;59.512;18.050;2022-09-17T04:59:33;3.90;;;1.70;;
22080;SDS011;11207;59.512;18.050;2022-09-17T05:01:58;1.70;;;1.60;;
22080;SDS011;11207;59.512;18.050;2022-09-17T05:04:24;1.73;;;1.70;;
22080;SDS011;11207;59.512;18.050;2022-09-17T05:06:49;1.70;;;1.60;;
22080;SDS011;11207;59.512;18.050;2022-09-17T05:09:15;4.30;;;1.80;;
22080;SDS011;11207;59.512;18.050;2022-09-17T05:11:41;1.70;;;1.60;;
22080;SDS011;11207;59.512;18.050;2022-09-17T05:14:06;1.90;;;1.80;;
22080;SDS011;11207;59.512;18.050;2022-09-17T05:16:32;1.60;;;1.60;;
22080;SDS011;11207;59.512;18.050;2022-09-17T05:18:58;2.97;;;1.70;;
22080;SDS011;11207;59.512;18.050;2022-09-17T05:21:24;1.80;;;1.70;;
22080;SDS011;11207;59.512;18.050;2022-09-17T05:23:49;1.80;;;1.70;;
22080;SDS011;11207;59.512;18.050;2022-09-17T05:26:15;1.73;;;1.60;;
22080;SDS011;11207;59.512;18.050;2022-09-17T05:28:40;2.03;;;1.60;;
22080;SDS011;11207;59.512;18.050;2022-09-17T05:31:06;2.40;;;1.53;;
22080;SDS011;11207;59.512;18.050;2022-09-17T05:33:32;1.80;;;1.70;;
22080;SDS011;11207;59.512;18.050;2022-09-17T05:35:57;2.07;;;1.70;;
22080;SDS011;11207;59.512;18.050;2022-09-17T05:38:24;1.70;;;1.60;;
22080;SDS011;11207;59.512;18.050;2022-09-17T05:40:49;2.30;;;1.70;;
22080;SDS011;11207;59.512;18.050;2022-09-17T05:43:15;1.80;;;1.70;;
22080;SDS011;11207;59.512;18.050;2022-09-17T05:45:41;1.77;;;1.70;;
22080;SDS011;11207;59.512;18.050;2022-09-17T05:48:08;2.10;;;1.57;;
22080;SDS011;11207;59.512;18.050;2022-09-17T05:50:38;1.73;;;1.63;;
22080;SDS011;11207;59.512;18.050;2022-09-17T05:53:05;1.50;;;1.50;;
22080;SDS011;11207;59.512;18.050;2022-09-17T05:55:35;1.97;;;1.80;;
22080;SDS011;11207;59.512;18.050;2022-09-17T05:58:07;1.80;;;1.70;;
22080;SDS011;11207;59.512;18.050;2022-09-17T06:00:37;1.70;;;1.60;;
22080;SDS011;11207;59.512;18.050;2022-09-17T06:03:04;1.57;;;1.53;;
22080;SDS011;11207;59.512;18.050;2022-09-17T06:05:29;1.60;;;1.60;;
22080;SDS011;11207;59.512;18.050;2022-09-17T06:07:55;1.60;;;1.50;;
22080;SDS011;11207;59.512;18.050;2022-09-17T06:10:21;1.50;;;1.50;;
22080;SDS011;11207;59.512;18.050;2022-09-17T06:12:47;1.70;;;1.60;;
22080;SDS011;11207;59.512;18.050;2022-09-17T06:15:13;1.70;;;1.60;;
22080;SDS011;11207;59.512;18.050;2022-09-17T06:17:39;1.80;;;1.70;;
22080;SDS011;11207;59.512;18.050;2022-09-17T06:20:06;1.47;;;1.40;;
22080;SDS011;11207;59.512;18.050;2022-09-17T06:26:29;1.90;;;1.40;;
22080;SDS011;11207;59.512;18.050;2022-09-17T06:28:57;1.90;;;1.80;;
22080;SDS011;11207;59.512;18.050;2022-09-17T06:31:23;1.60;;;1.60;;
22080;SDS011;11207;59.512;18.050;2022-09-17T06:33:49;1.40;;;1.40;;
22080;SDS011;11207;59.512;18.050;2022-09-17T06:36:15;1.70;;;1.60;;
22080;SDS011;11207;59.512;18.050;2022-09-17T06:38:40;1.47;;;1.37;;
22080;SDS011;11207;59.512;18.050;2022-09-17T06:41:06;1.60;;;1.50;;
22080;SDS011;11207;59.512;18.050;2022-09-17T06:43:32;1.50;;;1.50;;
22080;SDS011;11207;59.512;18.050;2022-09-17T06:45:58;1.67;;;1.57;;
22080;SDS011;11207;59.512;18.050;2022-09-17T06:48:26;3.63;;;1.67;;
22080;SDS011;11207;59.512;18.050;2022-09-17T06:50:53;1.50;;;1.40;;
22080;SDS011;11207;59.512;18.050;2022-09-17T06:53:23;1.57;;;1.47;;
22080;SDS011;11207;59.512;18.050;2022-09-17T06:55:49;1.63;;;1.53;;
22080;SDS011;11207;59.512;18.050;2022-09-17T06:58:15;1.70;;;1.60;;
22080;SDS011;11207;59.512;18.050;2022-09-17T07:00:41;1.70;;;1.60;;
22080;SDS011;11207;59.512;18.050;2022-09-17T07:03:07;1.83;;;1.67;;
22080;SDS011;11207;59.512;18.050;2022-09-17T07:05:33;1.53;;;1.43;;
22080;SDS011;11207;59.512;18.050;2022-09-17T07:08:00;1.57;;;1.47;;
22080;SDS011;11207;59.512;18.050;2022-09-17T07:10:29;1.70;;;1.50;;
22080;SDS011;11207;59.512;18.050;2022-09-17T07:12:55;3.53;;;1.73;;
22080;SDS011;11207;59.512;18.050;2022-09-17T07:15:21;1.80;;;1.63;;
22080;SDS011;11207;59.512;18.050;2022-09-17T07:17:47;1.47;;;1.37;;
22080;SDS011;11207;59.512;18.050;2022-09-17T07:20:13;1.60;;;1.50;;
22080;SDS011;11207;59.512;18.050;2022-09-17T07:22:39;1.57;;;1.50;;
22080;SDS011;11207;59.512;18.050;2022-09-17T07:25:05;1.60;;;1.50;;
22080;SDS011;11207;59.512;18.050;2022-09-17T07:27:31;1.40;;;1.40;;
22080;SDS011;11207;59.512;18.050;2022-09-17T07:29:57;1.60;;;1.50;;
22080;SDS011;11207;59.512;18.050;2022-09-17T07:32:23;1.83;;;1.40;;
22080;SDS011;11207;59.512;18.050;2022-09-17T07:34:49;1.43;;;1.33;;
22080;SDS011;11207;59.512;18.050;2022-09-17T07:37:15;1.70;;;1.30;;
22080;SDS011;11207;59.512;18.050;2022-09-17T07:39:41;7.77;;;1.70;;
22080;SDS011;11207;59.512;18.050;2022-09-17T07:42:08;1.53;;;1.43;;
22080;SDS011;11207;59.512;18.050;2022-09-17T07:44:34;1.60;;;1.50;;
22080;SDS011;11207;59.512;18.050;2022-09-17T07:47:00;1.60;;;1.50;;
22080;SDS011;11207;59.512;18.050;2022-09-17T07:49:26;2.20;;;1.30;;
22080;SDS011;11207;59.512;18.050;2022-09-17T07:51:52;2.47;;;1.30;;
22080;SDS011;11207;59.512;18.050;2022-09-17T07:54:19;1.40;;;1.30;;
22080;SDS011;11207;59.512;18.050;2022-09-17T07:56:44;1.63;;;1.40;;
22080;SDS011;11207;59.512;18.050;2022-09-17T07:59:10;1.87;;;1.50;;
22080;SDS011;11207;59.512;18.050;2022-09-17T08:01:36;1.77;;;1.50;;
22080;SDS011;11207;59.512;18.050;2022-09-17T08:04:02;1.47;;;1.40;;
22080;SDS011;11207;59.512;18.050;2022-09-17T08:06:28;2.57;;;1.50;;
22080;SDS011;11207;59.512;18.050;2022-09-17T08:08:54;1.43;;;1.37;;
22080;SDS011;11207;59.512;18.050;2022-09-17T08:11:22;1.63;;;1.33;;
22080;SDS011;11207;59.512;18.050;2022-09-17T08:13:58;1.40;;;1.30;;
22080;SDS011;11207;59.512;18.050;2022-09-17T08:16:24;1.87;;;1.47;;
22080;SDS011;11207;59.512;18.050;2022-09-17T08:18:54;1.93;;;1.30;;
22080;SDS011;11207;59.512;18.050;2022-09-17T08:21:21;1.30;;;1.30;;
22080;SDS011;11207;59.512;18.050;2022-09-17T08:23:47;1.40;;;1.30;;
22080;SDS011;11207;59.512;18.050;2022-09-17T08:26:17;1.40;;;1.40;;
22080;SDS011;11207;59.512;18.050;2022-09-17T08:28:47;1.30;;;1.30;;
22080;SDS011;11207;59.512;18.050;2022-09-17T08:31:19;1.30;;;1.30;;
22080;SDS011;11207;59.512;18.050;2022-09-17T08:33:45;1.50;;;1.40;;
22080;SDS011;11207;59.512;18.050;2022-09-17T08:36:12;1.40;;;1.30;;
22080;SDS011;11207;59.512;18.050;2022-09-17T08:38:39;1.30;;;1.20;;
22080;SDS011;11207;59.512;18.050;2022-09-17T08:41:14;2.50;;;1.40;;
22080;SDS011;11207;59.512;18.050;2022-09-17T08:46:27;1.20;;;1.20;;
22080;SDS011;11207;59.512;18.050;2022-09-17T08:54:35;1.40;;;1.30;;
22080;SDS011;11207;59.512;18.050;2022-09-17T09:00:00;1.40;;;1.30;;
22080;SDS011;11207;59.512;18.050;2022-09-17T09:11:00;1.40;;;1.30;;
22080;SDS011;11207;59.512;18.050;2022-09-17T09:13:51;1.40;;;1.30;;
22080;SDS011;11207;59.512;18.050;2022-09-17T09:16:27;1.20;;;1.20;;
22080;SDS011;11207;59.512;18.050;2022-09-17T09:18:58;1.30;;;1.20;;
22080;SDS011;11207;59.512;18.050;2022-09-17T09:24:39;3.90;;;1.30;;
22080;SDS011;11207;59.512;18.050;2022-09-17T09:27:16;4.67;;;1.27;;
22080;SDS011;11207;59.512;18.050;2022-09-17T09:30:04;2.73;;;1.30;;
22080;SDS011;11207;59.512;18.050;2022-09-17T09:35:34;1.53;;;1.10;;
22080;SDS011;11207;59.512;18.050;2022-09-17T09:38:05;1.27;;;1.27;;
22080;SDS011;11207;59.512;18.050;2022-09-17T09:40:47;1.50;;;1.17;;
22080;SDS011;11207;59.512;18.050;2022-09-17T09:57:21;2.73;;;1.10;;
22080;SDS011;11207;59.512;18.050;2022-09-17T10:00:20;1.27;;;1.20;;
22080;SDS011;11207;59.512;18.050;2022-09-17T10:02:54;1.17;;;1.17;;
22080;SDS011;11207;59.512;18.050;2022-09-17T10:05:28;1.33;;;1.10;;
22080;SDS011;11207;59.512;18.050;2022-09-17T10:07:54;1.57;;;1.17;;
22080;SDS011;11207;59.512;18.050;2022-09-17T10:10:20;1.20;;;1.20;;
22080;SDS011;11207;59.512;18.050;2022-09-17T10:12:46;1.60;;;1.10;;
22080;SDS011;11207;59.512;18.050;2022-09-17T10:15:22;1.33;;;1.07;;
22080;SDS011;11207;59.512;18.050;2022-09-17T10:18:07;1.10;;;1.10;;
22080;SDS011;11207;59.512;18.050;2022-09-17T10:20:51;1.00;;;1.00;;
22080;SDS011;11207;59.512;18.050;2022-09-17T10:23:17;1.17;;;1.17;;
22080;SDS011;11207;59.512;18.050;2022-09-17T10:25:47;1.43;;;1.07;;
22080;SDS011;11207;59.512;18.050;2022-09-17T10:28:27;1.10;;;1.10;;
22080;SDS011;11207;59.512;18.050;2022-09-17T10:31:04;1.10;;;1.10;;
22080;SDS011;11207;59.512;18.050;2022-09-17T10:33:34;1.00;;;1.00;;
22080;SDS011;11207;59.512;18.050;2022-09-17T10:36:05;2.93;;;1.30;;
22080;SDS011;11207;59.512;18.050;2022-09-17T10:38:38;2.87;;;1.80;;
22080;SDS011;11207;59.512;18.050;2022-09-17T10:41:10;1.30;;;1.20;;
22080;SDS011;11207;59.512;18.050;2022-09-17T10:43:36;1.13;;;1.10;;
22080;SDS011;11207;59.512;18.050;2022-09-17T10:46:02;1.10;;;1.10;;
22080;SDS011;11207;59.512;18.050;2022-09-17T10:48:30;1.30;;;1.20;;
22080;SDS011;11207;59.512;18.050;2022-09-17T10:50:58;5.23;;;1.30;;
22080;SDS011;11207;59.512;18.050;2022-09-17T10:53:27;1.27;;;1.27;;
22080;SDS011;11207;59.512;18.050;2022-09-17T10:55:54;1.00;;;1.00;;
22080;SDS011;11207;59.512;18.050;2022-09-17T10:58:48;1.10;;;1.10;;
22080;SDS011;11207;59.512;18.050;2022-09-17T11:09:47;1.20;;;1.20;;
22080;SDS011;11207;59.512;18.050;2022-09-17T11:12:55;1.80;;;1.20;;
22080;SDS011;11207;59.512;18.050;2022-09-17T11:23:35;1.03;;;1.03;;
22080;SDS011;11207;59.512;18.050;2022-09-17T11:32:05;1.00;;;1.00;;
22080;SDS011;11207;59.512;18.050;2022-09-17T11:35:02;1.23;;;1.13;;
22080;SDS011;11207;59.512;18.050;2022-09-17T11:43:35;5.80;;;2.93;;
22080;SDS011;11207;59.512;18.050;2022-09-17T11:46:08;2.90;;;2.60;;
22080;SDS011;11207;59.512;18.050;2022-09-17T11:58:49;1.00;;;1.00;;
22080;SDS011;11207;59.512;18.050;2022-09-17T12:04:15;1.90;;;1.00;;
22080;SDS011;11207;59.512;18.050;2022-09-17T12:07:10;0.90;;;0.90;;
22080;SDS011;11207;59.512;18.050;2022-09-17T12:09:49;2.73;;;1.10;;
22080;SDS011;11207;59.512;18.050;2022-09-17T12:12:21;1.33;;;1.00;;
22080;SDS011;11207;59.512;18.050;2022-09-17T12:14:59;1.00;;;1.00;;
22080;SDS011;11207;59.512;18.050;2022-09-17T12:17:37;1.00;;;1.00;;
22080;SDS011;11207;59.512;18.050;2022-09-17T12:20:22;1.53;;;0.93;;
22080;SDS011;11207;59.512;18.050;2022-09-17T12:22:57;0.87;;;0.87;;
22080;SDS011;11207;59.512;18.050;2022-09-17T12:25:28;0.90;;;0.90;;
22080;SDS011;11207;59.512;18.050;2022-09-17T12:28:12;0.90;;;0.90;;
22080;SDS011;11207;59.512;18.050;2022-09-17T12:30:48;1.17;;;0.90;;
22080;SDS011;11207;59.512;18.050;2022-09-17T12:33:25;5.60;;;1.10;;
22080;SDS011;11207;59.512;18.050;2022-09-17T12:36:16;1.50;;;1.17;;
22080;SDS011;11207;59.512;18.050;2022-09-17T12:39:11;0.80;;;0.80;;
22080;SDS011;11207;59.512;18.050;2022-09-17T12:42:00;0.90;;;0.90;;
22080;SDS011;11207;59.512;18.050;2022-09-17T12:49:49;1.03;;;0.93;;
22080;SDS011;11207;59.512;18.050;2022-09-17T12:58:21;0.90;;;0.90;;
22080;SDS011;11207;59.512;18.050;2022-09-17T13:03:50;1.20;;;1.03;;
22080;SDS011;11207;59.512;18.050;2022-09-17T13:12:10;1.10;;;1.10;;
22080;SDS011;11207;59.512;18.050;2022-09-17T13:17:54;1.00;;;1.00;;
22080;SDS011;11207;59.512;18.050;2022-09-17T13:20:22;1.40;;;1.30;;
22080;SDS011;11207;59.512;18.050;2022-09-17T13:22:55;1.20;;;1.10;;
22080;SDS011;11207;59.512;18.050;2022-09-17T13:25:22;1.10;;;1.10;;
22080;SDS011;11207;59.512;18.050;2022-09-17T13:27:49;1.10;;;1.10;;
22080;SDS011;11207;59.512;18.050;2022-09-17T13:30:31;1.30;;;1.20;;
22080;SDS011;11207;59.512;18.050;2022-09-17T13:39:00;1.20;;;1.20;;
22080;SDS011;11207;59.512;18.050;2022-09-17T13:41:28;1.27;;;1.27;;
22080;SDS011;11207;59.512;18.050;2022-09-17T13:43:56;1.13;;;1.07;;
22080;SDS011;11207;59.512;18.050;2022-09-17T13:46:22;1.13;;;1.13;;
22080;SDS011;11207;59.512;18.050;2022-09-17T13:48:59;1.10;;;1.10;;
22080;SDS011;11207;59.512;18.050;2022-09-17T13:53:54;1.30;;;1.20;;
22080;SDS011;11207;59.512;18.050;2022-09-17T13:56:32;1.17;;;1.17;;
22080;SDS011;11207;59.512;18.050;2022-09-17T13:59:06;1.40;;;1.30;;
22080;SDS011;11207;59.512;18.050;2022-09-17T14:20:53;3.33;;;1.60;;
22080;SDS011;11207;59.512;18.050;2022-09-17T14:23:33;1.30;;;1.30;;
22080;SDS011;11207;59.512;18.050;2022-09-17T14:26:07;1.33;;;1.33;;
22080;SDS011;11207;59.512;18.050;2022-09-17T14:28:48;1.30;;;1.30;;
22080;SDS011;11207;59.512;18.050;2022-09-17T14:31:22;1.40;;;1.40;;
22080;SDS011;11207;59.512;18.050;2022-09-17T14:33:54;3.13;;;1.30;;
22080;SDS011;11207;59.512;18.050;2022-09-17T14:36:20;1.30;;;1.30;;
22080;SDS011;11207;59.512;18.050;2022-09-17T14:38:48;2.07;;;1.73;;
22080;SDS011;11207;59.512;18.050;2022-09-17T14:41:20;1.50;;;1.40;;
22080;SDS011;11207;59.512;18.050;2022-09-17T14:44:02;1.30;;;1.30;;
22080;SDS011;11207;59.512;18.050;2022-09-17T14:46:34;11.23;;;1.93;;
22080;SDS011;11207;59.512;18.050;2022-09-17T14:49:18;3.43;;;1.40;;
22080;SDS011;11207;59.512;18.050;2022-09-17T14:51:47;1.60;;;1.50;;
22080;SDS011;11207;59.512;18.050;2022-09-17T14:54:15;1.30;;;1.30;;
22080;SDS011;11207;59.512;18.050;2022-09-17T14:56:50;1.43;;;1.37;;
22080;SDS011;11207;59.512;18.050;2022-09-17T15:05:24;1.30;;;1.30;;
22080;SDS011;11207;59.512;18.050;2022-09-17T15:10:37;1.50;;;1.40;;
22080;SDS011;11207;59.512;18.050;2022-09-17T15:13:15;2.57;;;1.70;;
22080;SDS011;11207;59.512;18.050;2022-09-17T15:15:51;1.47;;;1.47;;
22080;SDS011;11207;59.512;18.050;2022-09-17T15:21:22;1.53;;;1.43;;
22080;SDS011;11207;59.512;18.050;2022-09-17T15:24:08;1.50;;;1.40;;
22080;SDS011;11207;59.512;18.050;2022-09-17T15:26:57;2.63;;;1.60;;
22080;SDS011;11207;59.512;18.050;2022-09-17T15:29:27;1.40;;;1.30;;
22080;SDS011;11207;59.512;18.050;2022-09-17T15:31:55;1.40;;;1.40;;
22080;SDS011;11207;59.512;18.050;2022-09-17T15:34:21;1.53;;;1.43;;
22080;SDS011;11207;59.512;18.050;2022-09-17T15:39:52;1.30;;;1.30;;
22080;SDS011;11207;59.512;18.050;2022-09-17T15:42:21;1.47;;;1.37;;
22080;SDS011;11207;59.512;18.050;2022-09-17T15:48:03;1.50;;;1.50;;
22080;SDS011;11207;59.512;18.050;2022-09-17T15:55:37;1.67;;;1.57;;
22080;SDS011;11207;59.512;18.050;2022-09-17T15:58:22;3.13;;;1.80;;
22080;SDS011;11207;59.512;18.050;2022-09-17T16:08:49;2.40;;;1.67;;
22080;SDS011;11207;59.512;18.050;2022-09-17T16:11:16;1.87;;;1.57;;
22080;SDS011;11207;59.512;18.050;2022-09-17T16:13:46;1.77;;;1.67;;
22080;SDS011;11207;59.512;18.050;2022-09-17T16:16:17;1.63;;;1.53;;
22080;SDS011;11207;59.512;18.050;2022-09-17T16:18:44;1.93;;;1.80;;
22080;SDS011;11207;59.512;18.050;2022-09-17T16:21:11;2.87;;;1.80;;
22080;SDS011;11207;59.512;18.050;2022-09-17T16:23:37;1.80;;;1.70;;
22080;SDS011;11207;59.512;18.050;2022-09-17T16:26:03;1.90;;;1.80;;
22080;SDS011;11207;59.512;18.050;2022-09-17T16:28:30;1.80;;;1.70;;
22080;SDS011;11207;59.512;18.050;2022-09-17T16:30:57;2.17;;;1.97;;
22080;SDS011;11207;59.512;18.050;2022-09-17T16:33:23;3.20;;;1.80;;
22080;SDS011;11207;59.512;18.050;2022-09-17T16:35:50;2.33;;;2.13;;
22080;SDS011;11207;59.512;18.050;2022-09-17T16:38:15;2.27;;;2.07;;
22080;SDS011;11207;59.512;18.050;2022-09-17T16:40:42;2.53;;;2.33;;
22080;SDS011;11207;59.512;18.050;2022-09-17T16:43:09;3.23;;;2.90;;
22080;SDS011;11207;59.512;18.050;2022-09-17T16:45:35;3.87;;;2.63;;
22080;SDS011;11207;59.512;18.050;2022-09-17T16:48:00;4.37;;;2.70;;
22080;SDS011;11207;59.512;18.050;2022-09-17T16:50:27;3.50;;;2.87;;
22080;SDS011;11207;59.512;18.050;2022-09-17T16:52:52;2.40;;;2.20;;
22080;SDS011;11207;59.512;18.050;2022-09-17T16:55:19;2.63;;;2.40;;
22080;SDS011;11207;59.512;18.050;2022-09-17T16:57:45;2.43;;;2.23;;
22080;SDS011;11207;59.512;18.050;2022-09-17T17:00:13;2.10;;;2.00;;
22080;SDS011;11207;59.512;18.050;2022-09-17T17:02:43;2.10;;;2.00;;
22080;SDS011;11207;59.512;18.050;2022-09-17T17:05:09;2.40;;;2.10;;
22080;SDS011;11207;59.512;18.050;2022-09-17T17:07:35;2.23;;;1.77;;
22080;SDS011;11207;59.512;18.050;2022-09-17T17:10:02;2.30;;;2.10;;
22080;SDS011;11207;59.512;18.050;2022-09-17T17:12:33;2.10;;;1.90;;
22080;SDS011;11207;59.512;18.050;2022-09-17T17:14:59;2.50;;;1.93;;
22080;SDS011;11207;59.512;18.050;2022-09-17T17:17:25;2.07;;;1.97;;
22080;SDS011;11207;59.512;18.050;2022-09-17T17:19:51;1.43;;;1.43;;
22080;SDS011;11207;59.512;18.050;2022-09-17T17:22:17;1.90;;;1.80;;
22080;SDS011;11207;59.512;18.050;2022-09-17T17:24:43;1.80;;;1.70;;
22080;SDS011;11207;59.512;18.050;2022-09-17T17:27:08;2.30;;;2.10;;
22080;SDS011;11207;59.512;18.050;2022-09-17T17:29:34;2.33;;;2.13;;
22080;SDS011;11207;59.512;18.050;2022-09-17T17:32:03;8.57;;;3.77;;
22080;SDS011;11207;59.512;18.050;2022-09-17T17:34:29;4.47;;;2.93;;
22080;SDS011;11207;59.512;18.050;2022-09-17T17:36:55;2.50;;;2.27;;
22080;SDS011;11207;59.512;18.050;2022-09-17T17:39:22;1.90;;;1.80;;
22080;SDS011;11207;59.512;18.050;2022-09-17T17:41:50;1.80;;;1.70;;
22080;SDS011;11207;59.512;18.050;2022-09-17T17:44:18;2.83;;;1.70;;
22080;SDS011;11207;59.512;18.050;2022-09-17T17:46:44;1.77;;;1.67;;
22080;SDS011;11207;59.512;18.050;2022-09-17T17:49:09;1.87;;;1.77;;
22080;SDS011;11207;59.512;18.050;2022-09-17T17:51:35;1.93;;;1.83;;
22080;SDS011;11207;59.512;18.050;2022-09-17T17:54:01;2.00;;;1.80;;
22080;SDS011;11207;59.512;18.050;2022-09-17T17:56:26;1.90;;;1.80;;
22080;SDS011;11207;59.512;18.050;2022-09-17T17:58:53;2.10;;;1.60;;
22080;SDS011;11207;59.512;18.050;2022-09-17T18:01:29;1.70;;;1.60;;
22080;SDS011;11207;59.512;18.050;2022-09-17T18:03:59;3.43;;;1.80;;
22080;SDS011;11207;59.512;18.050;2022-09-17T18:06:26;4.33;;;1.63;;
22080;SDS011;11207;59.512;18.050;2022-09-17T18:08:52;1.83;;;1.70;;
22080;SDS011;11207;59.512;18.050;2022-09-17T18:11:19;2.37;;;1.70;;
22080;SDS011;11207;59.512;18.050;2022-09-17T18:13:45;3.87;;;1.70;;
22080;SDS011;11207;59.512;18.050;2022-09-17T18:16:15;1.80;;;1.70;;
22080;SDS011;11207;59.512;18.050;2022-09-17T18:18:41;2.77;;;1.77;;
22080;SDS011;11207;59.512;18.050;2022-09-17T18:21:09;2.00;;;1.90;;
22080;SDS011;11207;59.512;18.050;2022-09-17T18:23:37;1.90;;;1.80;;
22080;SDS011;11207;59.512;18.050;2022-09-17T18:26:04;1.80;;;1.70;;
22080;SDS011;11207;59.512;18.050;2022-09-17T18:28:33;1.60;;;1.50;;
22080;SDS011;11207;59.512;18.050;2022-09-17T18:31:04;1.83;;;1.73;;